createdAt,value
2023-05-12T00:01:21.690Z,100484.50
2023-05-12T00:02:43.689Z,100482.31
2023-05-12T00:04:07.034Z,100472.06
2023-05-12T00:05:30.514Z,100465.94
2023-05-12T00:06:53.505Z,100474.34
2023-05-12T00:08:15.561Z,100468.84
2023-05-12T00:09:38.316Z,100473.50
2023-05-12T00:11:01.528Z,100468.88
2023-05-12T00:12:24.373Z,100476.16
2023-05-12T00:13:47.221Z,100474.13
2023-05-12T00:15:10.103Z,100473.25
2023-05-12T00:16:32.998Z,100474.53
2023-05-12T00:17:54.939Z,100474.25
2023-05-12T00:19:17.827Z,100479.03
2023-05-12T00:20:41.957Z,100474.66
2023-05-12T00:22:03.971Z,100485.34
2023-05-12T00:23:26.821Z,100472.50
2023-05-12T00:24:48.674Z,100479.94
2023-05-12T00:26:11.507Z,100485.22
2023-05-12T00:27:33.342Z,100483.22
2023-05-12T00:28:56.303Z,100482.16
2023-05-12T00:30:18.586Z,100477.72
2023-05-12T00:31:41.793Z,100477.78
2023-05-12T00:33:05.510Z,100483.69
2023-05-12T00:34:28.451Z,100478.09
2023-05-12T00:35:52.510Z,100483.69
2023-05-12T00:37:15.280Z,100481.28
2023-05-12T00:38:38.597Z,100487.38
2023-05-12T00:40:00.944Z,100486.19
2023-05-12T00:41:24.371Z,100487.78
2023-05-12T00:42:46.165Z,100485.06
2023-05-12T00:44:09.158Z,100483.81
2023-05-12T00:45:31.992Z,100484.81
2023-05-12T00:46:54.460Z,100488.41
2023-05-12T00:48:17.834Z,100490.63
2023-05-12T00:49:42.596Z,100488.00
2023-05-12T00:51:07.186Z,100488.03
2023-05-12T00:52:29.221Z,100485.50
2023-05-12T00:53:52.144Z,100485.53
2023-05-12T00:55:14.996Z,100486.72
2023-05-12T00:56:39.361Z,100481.50
2023-05-12T00:58:02.358Z,100487.19
2023-05-12T00:59:24.217Z,100486.28
2023-05-12T01:00:46.988Z,100490.06
2023-05-12T01:02:08.890Z,100488.56
2023-05-12T01:03:32.079Z,100487.50
2023-05-12T01:04:54.053Z,100481.50
2023-05-12T01:06:25.520Z,100482.41
2023-05-12T01:07:49.250Z,100485.06
2023-05-12T01:09:11.213Z,100481.63
2023-05-12T01:10:34.353Z,100487.38
2023-05-12T01:11:56.169Z,100489.84
2023-05-12T01:13:19.015Z,100491.19
2023-05-12T01:14:41.438Z,100488.81
2023-05-12T01:16:05.772Z,100489.91
2023-05-12T01:17:33.504Z,100488.72
2023-05-12T01:18:56.844Z,100482.69
2023-05-12T01:20:23.072Z,100479.59
2023-05-12T01:21:46.246Z,100482.69
2023-05-12T01:23:09.855Z,100484.16
2023-05-12T01:24:34.504Z,100481.75
2023-05-12T01:26:04.370Z,100480.81
2023-05-12T01:27:27.463Z,100480.53
2023-05-12T01:28:51.767Z,100485.19
2023-05-12T01:30:19.904Z,100477.84
2023-05-12T01:31:41.983Z,100483.28
2023-05-12T01:33:04.986Z,100483.16
2023-05-12T01:34:27.116Z,100482.31
2023-05-12T01:35:49.893Z,100478.00
2023-05-12T01:37:11.693Z,100492.25
2023-05-12T01:38:34.489Z,100483.28
2023-05-12T01:39:56.311Z,100481.94
2023-05-12T01:41:21.129Z,100479.91
2023-05-12T01:42:44.000Z,100482.94
2023-05-12T01:44:05.809Z,100486.72
2023-05-12T01:45:28.692Z,100483.50
2023-05-12T01:46:50.615Z,100477.19
2023-05-12T01:48:13.408Z,100479.06
2023-05-12T01:49:35.571Z,100477.88
2023-05-12T01:51:00.570Z,100475.94
2023-05-12T01:52:24.954Z,100480.50
2023-05-12T01:53:47.769Z,100486.78
2023-05-12T01:55:11.504Z,100481.00
2023-05-12T01:56:35.613Z,100486.19
2023-05-12T01:57:58.429Z,100485.84
2023-05-12T01:59:21.244Z,100487.84
2023-05-12T02:00:43.124Z,100480.81
2023-05-12T02:02:05.998Z,100484.41
2023-05-12T02:03:27.911Z,100480.38
2023-05-12T02:04:50.910Z,100480.69
2023-05-12T02:06:13.702Z,100483.25
2023-05-12T02:07:35.632Z,100483.25
2023-05-12T02:08:58.461Z,100483.81
2023-05-12T02:10:20.850Z,100484.63
2023-05-12T02:11:45.162Z,100487.31
2023-05-12T02:13:08.688Z,100487.19
2023-05-12T02:14:30.573Z,100487.31
2023-05-12T02:15:53.429Z,100486.63
2023-05-12T02:17:15.228Z,100489.78
2023-05-12T02:18:38.087Z,100488.56
2023-05-12T02:19:59.909Z,100481.81
2023-05-12T02:21:22.659Z,100487.19
2023-05-12T02:22:44.461Z,100481.81
2023-05-12T02:24:07.917Z,100486.72
2023-05-12T02:25:29.772Z,100489.72
2023-05-12T02:26:53.906Z,100489.53
2023-05-12T02:28:15.751Z,100488.28
2023-05-12T02:29:38.701Z,100485.59
2023-05-12T02:31:01.687Z,100489.53
2023-05-12T02:32:28.061Z,100490.75
2023-05-12T02:33:51.657Z,100486.09
2023-05-12T02:35:13.671Z,100485.19
2023-05-12T02:36:36.444Z,100489.72
2023-05-12T02:37:58.231Z,100495.19
2023-05-12T02:39:21.010Z,100492.09
2023-05-12T02:40:43.084Z,100488.63
2023-05-12T02:42:08.596Z,100496.38
2023-05-12T02:43:31.377Z,100495.56
2023-05-12T02:44:54.106Z,100489.91
2023-05-12T02:46:15.960Z,100488.81
2023-05-12T02:47:38.871Z,100491.31
2023-05-12T02:49:00.755Z,100490.63
2023-05-12T02:50:23.675Z,100489.16
2023-05-12T02:51:45.492Z,100498.06
2023-05-12T02:53:08.319Z,100494.69
2023-05-12T02:54:30.141Z,100491.94
2023-05-12T02:55:52.966Z,100486.94
2023-05-12T02:57:16.206Z,100488.00
2023-05-12T02:58:39.031Z,100501.03
2023-05-12T03:00:01.970Z,100488.16
2023-05-12T03:01:24.860Z,100497.38
2023-05-12T03:02:46.863Z,100485.78
2023-05-12T03:04:09.781Z,100490.31
2023-05-12T03:05:32.536Z,100490.44
2023-05-12T03:06:55.332Z,100497.31
2023-05-12T03:08:17.201Z,100493.84
2023-05-12T03:09:39.961Z,100492.78
2023-05-12T03:11:01.970Z,100503.81
2023-05-12T03:12:26.241Z,100505.75
2023-05-12T03:13:49.099Z,100491.72
2023-05-12T03:15:11.506Z,100490.44
2023-05-12T03:16:34.395Z,100490.56
2023-05-12T03:17:57.330Z,100493.16
2023-05-12T03:19:20.160Z,100492.56
2023-05-12T03:20:42.957Z,100480.59
2023-05-12T03:22:07.193Z,100490.59
2023-05-12T03:23:29.979Z,100492.28
2023-05-12T03:24:52.047Z,100497.50
2023-05-12T03:26:14.847Z,100497.41
2023-05-12T03:27:38.101Z,100490.84
2023-05-12T03:29:01.167Z,100496.84
2023-05-12T03:30:23.034Z,100490.44
2023-05-12T03:31:49.125Z,100486.66
2023-05-12T03:33:11.918Z,100483.09
2023-05-12T03:34:33.705Z,100483.47
2023-05-12T03:35:56.693Z,100485.47
2023-05-12T03:37:19.472Z,100491.88
2023-05-12T03:38:42.247Z,100480.06
2023-05-12T03:40:06.171Z,100489.72
2023-05-12T03:41:28.182Z,100474.16
2023-05-12T03:42:52.307Z,100470.44
2023-05-12T03:44:14.257Z,100468.91
2023-05-12T03:45:37.032Z,100466.91
2023-05-12T03:46:59.024Z,100473.06
2023-05-12T03:48:21.860Z,100466.41
2023-05-12T03:49:44.678Z,100455.31
2023-05-12T03:51:06.605Z,100469.28
2023-05-12T03:52:29.394Z,100470.94
2023-05-12T03:53:52.383Z,100467.44
2023-05-12T03:55:14.253Z,100478.69
2023-05-12T03:56:37.026Z,100476.94
2023-05-12T03:58:00.201Z,100481.16
2023-05-12T03:59:22.988Z,100487.03
2023-05-12T04:00:45.161Z,100487.09
2023-05-12T04:02:11.722Z,100481.66
2023-05-12T04:03:34.590Z,100474.38
2023-05-12T04:04:56.503Z,100485.53
2023-05-12T04:06:19.350Z,100477.28
2023-05-12T04:07:42.135Z,100481.25
2023-05-12T04:09:04.186Z,100479.00
2023-05-12T04:10:27.192Z,100469.94
2023-05-12T04:11:49.918Z,100471.00
2023-05-12T04:13:13.281Z,100473.72
2023-05-12T04:14:42.903Z,100474.50
2023-05-12T04:16:05.592Z,100474.59
2023-05-12T04:17:28.478Z,100479.47
2023-05-12T04:18:51.701Z,100479.97
2023-05-12T04:20:14.437Z,100484.63
2023-05-12T04:21:36.220Z,100481.38
2023-05-12T04:22:59.231Z,100491.94
2023-05-12T04:24:21.020Z,100488.34
2023-05-12T04:25:44.000Z,100488.34
2023-05-12T04:27:07.403Z,100486.78
2023-05-12T04:28:31.954Z,100487.31
2023-05-12T04:29:54.844Z,100491.47
2023-05-12T04:31:16.669Z,100494.09
2023-05-12T04:32:39.614Z,100505.16
2023-05-12T04:34:02.437Z,100509.22
2023-05-12T04:35:25.329Z,100510.81
2023-05-12T04:36:47.139Z,100512.06
2023-05-12T04:38:09.860Z,100512.47
2023-05-12T04:39:31.650Z,100515.56
2023-05-12T04:40:58.675Z,100512.72
2023-05-12T04:42:20.501Z,100512.81
2023-05-12T04:45:10.108Z,100509.69
2023-05-12T04:46:32.901Z,100502.50
2023-05-12T04:47:54.794Z,100512.03
2023-05-12T04:49:17.580Z,100510.28
2023-05-12T04:50:40.356Z,100501.94
2023-05-12T04:52:04.928Z,100499.31
2023-05-12T04:53:26.989Z,100497.78
2023-05-12T04:54:49.801Z,100501.41
2023-05-12T04:56:12.645Z,100495.72
2023-05-12T04:57:34.588Z,100508.13
2023-05-12T04:58:58.722Z,100504.84
2023-05-12T05:00:20.988Z,100510.78
2023-05-12T05:01:44.136Z,100505.28
2023-05-12T05:03:06.240Z,100510.16
2023-05-12T05:04:29.175Z,100499.16
2023-05-12T05:05:51.906Z,100501.63
2023-05-12T05:07:14.981Z,100509.66
2023-05-12T05:08:36.914Z,100510.25
2023-05-12T05:09:59.717Z,100508.72
2023-05-12T05:11:22.988Z,100511.34
2023-05-12T05:12:45.700Z,100516.31
2023-05-12T05:14:09.905Z,100521.19
2023-05-12T05:15:32.042Z,100517.25
2023-05-12T05:16:54.939Z,100514.47
2023-05-12T05:18:17.220Z,100520.75
2023-05-12T05:19:53.690Z,100523.28
2023-05-12T05:21:18.585Z,100518.91
2023-05-12T05:22:41.408Z,100522.25
2023-05-12T05:24:04.620Z,100519.84
2023-05-12T05:25:27.895Z,100520.03
2023-05-12T05:26:50.745Z,100520.72
2023-05-12T05:28:13.767Z,100522.34
2023-05-12T05:29:38.786Z,100519.56
2023-05-12T05:31:01.626Z,100520.34
2023-05-12T05:32:23.580Z,100529.75
2023-05-12T05:33:46.467Z,100529.88
2023-05-12T05:35:09.948Z,100525.19
2023-05-12T05:36:32.722Z,100524.97
2023-05-12T05:37:55.709Z,100524.59
2023-05-12T05:39:18.499Z,100529.88
2023-05-12T05:40:52.226Z,100525.09
2023-05-12T05:42:16.566Z,100524.38
2023-05-12T05:43:39.830Z,100527.50
2023-05-12T05:45:04.538Z,100524.25
2023-05-12T05:46:26.339Z,100537.59
2023-05-12T05:47:50.071Z,100529.78
2023-05-12T05:49:13.264Z,100539.25
2023-05-12T05:50:36.054Z,100544.41
2023-05-12T05:51:58.829Z,100538.94
2023-05-12T05:53:22.574Z,100533.75
2023-05-12T05:54:45.799Z,100532.28
2023-05-12T05:56:08.799Z,100530.59
2023-05-12T05:57:31.583Z,100536.59
2023-05-12T05:58:53.415Z,100538.53
2023-05-12T06:00:18.663Z,100541.38
2023-05-12T06:01:41.611Z,100542.00
2023-05-12T06:03:03.824Z,100543.28
2023-05-12T06:04:27.019Z,100541.88
2023-05-12T06:05:50.452Z,100548.50
2023-05-12T06:07:13.242Z,100550.63
2023-05-12T06:08:36.023Z,100550.78
2023-05-12T06:09:58.797Z,100546.72
2023-05-12T06:11:21.262Z,100548.63
2023-05-12T06:12:44.141Z,100547.38
2023-05-12T06:14:07.039Z,100542.94
2023-05-12T06:15:31.640Z,100553.03
2023-05-12T06:16:54.417Z,100550.03
2023-05-12T06:18:17.282Z,100551.94
2023-05-12T06:19:40.310Z,100549.53
2023-05-12T06:21:03.043Z,100557.44
2023-05-12T06:22:24.983Z,100560.38
2023-05-12T06:23:47.808Z,100560.47
2023-05-12T06:25:11.028Z,100557.72
2023-05-12T06:26:33.789Z,100555.63
2023-05-12T06:27:56.516Z,100563.88
2023-05-12T06:29:19.906Z,100551.47
2023-05-12T06:30:44.330Z,100565.81
2023-05-12T06:32:07.778Z,100559.09
2023-05-12T06:33:29.723Z,100556.47
2023-05-12T06:34:52.779Z,100566.91
2023-05-12T06:36:14.597Z,100567.63
2023-05-12T06:37:37.447Z,100558.53
2023-05-12T06:39:00.452Z,100558.72
2023-05-12T06:40:23.201Z,100564.13
2023-05-12T06:41:46.019Z,100562.47
2023-05-12T06:43:08.787Z,100563.34
2023-05-12T06:44:31.705Z,100566.41
2023-05-12T06:45:56.743Z,100567.97
2023-05-12T06:47:19.591Z,100575.94
2023-05-12T06:48:42.336Z,100568.03
2023-05-12T06:50:05.918Z,100573.00
2023-05-12T06:51:28.679Z,100572.50
2023-05-12T06:52:51.843Z,100565.19
2023-05-12T06:54:15.146Z,100568.97
2023-05-12T06:55:37.885Z,100570.44
2023-05-12T06:57:00.745Z,100570.72
2023-05-12T06:58:23.790Z,100575.97
2023-05-12T06:59:45.743Z,100582.91
2023-05-12T07:01:10.112Z,100575.44
2023-05-12T07:02:32.931Z,100581.19
2023-05-12T07:03:55.984Z,100574.16
2023-05-12T07:05:19.302Z,100572.94
2023-05-12T07:06:42.288Z,100579.78
2023-05-12T07:08:05.791Z,100578.78
2023-05-12T07:09:28.582Z,100583.25
2023-05-12T07:10:51.375Z,100581.06
2023-05-12T07:12:14.324Z,100580.78
2023-05-12T07:13:38.018Z,100577.13
2023-05-12T07:15:00.858Z,100578.25
2023-05-12T07:16:25.014Z,100583.78
2023-05-12T07:17:47.854Z,100584.19
2023-05-12T07:19:10.818Z,100585.63
2023-05-12T07:20:33.673Z,100579.75
2023-05-12T07:21:56.682Z,100591.56
2023-05-12T07:23:19.482Z,100590.97
2023-05-12T07:24:42.549Z,100584.75
2023-05-12T07:26:06.861Z,100583.53
2023-05-12T07:27:29.604Z,100582.63
2023-05-12T07:28:52.824Z,100586.84
2023-05-12T07:30:16.472Z,100586.91
2023-05-12T07:31:40.639Z,100586.25
2023-05-12T07:33:03.498Z,100579.31
2023-05-12T07:34:25.666Z,100580.91
2023-05-12T07:35:28.646Z,100583.34
2023-05-12T07:36:30.638Z,100576.91
2023-05-12T07:37:33.736Z,100565.59
2023-05-12T07:38:35.559Z,100567.72
2023-05-12T07:39:38.494Z,100569.97
2023-05-12T07:40:41.253Z,100568.03
2023-05-12T07:41:43.066Z,100573.97
2023-05-12T07:42:45.880Z,100576.78
2023-05-12T07:43:47.618Z,100577.06
2023-05-12T07:44:50.557Z,100574.59
2023-05-12T07:45:52.340Z,100585.66
2023-05-12T07:46:56.475Z,100566.69
2023-05-12T07:47:59.256Z,100579.13
2023-05-12T07:49:03.259Z,100574.66
2023-05-12T07:50:07.004Z,100572.25
2023-05-12T07:51:09.272Z,100555.53
2023-05-12T07:52:12.029Z,100573.88
2023-05-12T07:53:13.866Z,100572.81
2023-05-12T07:54:16.750Z,100573.78
2023-05-12T07:55:21.240Z,100566.31
2023-05-12T07:56:24.836Z,100568.81
2023-05-12T07:57:26.693Z,100570.63
2023-05-12T07:58:29.464Z,100573.84
2023-05-12T07:59:32.077Z,100580.63
2023-05-12T08:00:34.845Z,100570.72
2023-05-12T08:01:37.703Z,100569.28
2023-05-12T08:02:43.292Z,100564.78
2023-05-12T08:03:45.165Z,100572.06
2023-05-12T08:04:47.992Z,100574.84
2023-05-12T08:05:50.006Z,100571.41
2023-05-12T08:06:52.926Z,100570.94
2023-05-12T08:07:54.823Z,100563.47
2023-05-12T08:08:58.294Z,100566.56
2023-05-12T08:10:00.197Z,100573.38
2023-05-12T08:11:03.087Z,100575.97
2023-05-12T08:12:05.848Z,100572.75
2023-05-12T08:13:08.557Z,100576.31
2023-05-12T08:14:10.394Z,100584.50
2023-05-12T08:15:13.182Z,100579.38
2023-05-12T08:16:14.993Z,100577.13
2023-05-12T08:17:17.801Z,100578.72
2023-05-12T08:18:22.101Z,100581.97
2023-05-12T08:19:24.901Z,100578.56
2023-05-12T08:20:26.790Z,100582.59
2023-05-12T08:21:29.581Z,100576.69
2023-05-12T08:22:31.583Z,100585.38
2023-05-12T08:23:34.399Z,100579.03
2023-05-12T08:24:36.201Z,100579.34
2023-05-12T08:25:40.863Z,100583.38
2023-05-12T08:26:43.076Z,100580.78
2023-05-12T08:27:46.833Z,100578.56
2023-05-12T08:28:49.100Z,100578.38
2023-05-12T08:29:52.541Z,100577.25
2023-05-12T08:30:56.196Z,100579.69
2023-05-12T08:31:59.118Z,100579.31
2023-05-12T08:33:02.760Z,100584.13
2023-05-12T08:34:10.953Z,100574.81
2023-05-12T08:35:14.690Z,100578.13
2023-05-12T08:36:20.692Z,100578.25
2023-05-12T08:37:23.084Z,100584.91
2023-05-12T08:38:26.579Z,100590.06
2023-05-12T08:39:31.092Z,100588.84
2023-05-12T08:40:39.294Z,100582.47
2023-05-12T08:41:44.880Z,100581.22
2023-05-12T08:43:02.043Z,100582.66
2023-05-12T08:44:05.615Z,100586.59
2023-05-12T08:45:10.645Z,100574.25
2023-05-12T08:46:15.294Z,100586.16
2023-05-12T08:47:20.427Z,100582.97
2023-05-12T08:48:23.481Z,100585.72
2023-05-12T08:49:30.712Z,100591.50
2023-05-12T08:50:36.173Z,100581.13
2023-05-12T08:51:42.042Z,100583.00
2023-05-12T08:52:44.677Z,100576.47
2023-05-12T08:53:50.372Z,100577.66
2023-05-12T08:54:56.414Z,100580.75
2023-05-12T08:57:11.265Z,100581.22
2023-05-12T08:58:14.946Z,100581.25
2023-05-12T08:59:18.587Z,100586.09
2023-05-12T09:00:22.390Z,100582.56
2023-05-12T09:01:27.269Z,100582.00
2023-05-12T09:02:41.329Z,100577.81
2023-05-12T09:03:53.070Z,100578.03
2023-05-12T09:04:57.292Z,100580.81
2023-05-12T09:06:00.795Z,100585.63
2023-05-12T09:07:05.142Z,100580.53
2023-05-12T09:08:10.885Z,100578.16
2023-05-12T09:09:15.797Z,100581.13
2023-05-12T09:10:32.721Z,100570.28
2023-05-12T09:11:37.919Z,100571.59
2023-05-12T09:12:40.826Z,100570.69
2023-05-12T09:13:51.929Z,100572.19
2023-05-12T09:15:05.129Z,100570.47
2023-05-12T09:16:11.522Z,100571.91
2023-05-12T09:17:15.162Z,100569.75
2023-05-12T09:18:17.543Z,100573.31
2023-05-12T09:19:22.175Z,100573.72
2023-05-12T09:20:31.466Z,100572.47
2023-05-12T09:21:35.436Z,100566.09
2023-05-12T09:22:37.793Z,100570.13
2023-05-12T09:23:41.511Z,100565.94
2023-05-12T09:24:44.379Z,100574.88
2023-05-12T09:25:48.451Z,100574.81
2023-05-12T09:26:52.377Z,100563.38
2023-05-12T09:27:57.896Z,100567.59
2023-05-12T09:29:08.606Z,100566.25
2023-05-12T09:30:12.053Z,100573.19
2023-05-12T09:31:17.210Z,100565.00
2023-05-12T09:32:30.940Z,100563.97
2023-05-12T09:33:36.879Z,100564.91
2023-05-12T09:34:41.356Z,100561.22
2023-05-12T09:35:46.483Z,100567.09
2023-05-12T09:36:57.090Z,100561.50
2023-05-12T09:38:07.632Z,100562.72
2023-05-12T09:39:10.734Z,100565.53
2023-05-12T09:40:14.712Z,100551.47
2023-05-12T09:41:23.236Z,100558.31
2023-05-12T09:42:30.619Z,100554.47
2023-05-12T09:43:32.842Z,100554.63
2023-05-12T09:44:36.621Z,100559.88
2023-05-12T09:45:39.205Z,100561.56
2023-05-12T09:46:43.106Z,100562.88
2023-05-12T09:47:45.630Z,100563.81
2023-05-12T09:48:49.770Z,100560.19
2023-05-12T09:49:53.011Z,100566.03
2023-05-12T09:50:57.864Z,100559.22
2023-05-12T09:52:00.422Z,100564.25
2023-05-12T09:53:04.067Z,100566.22
2023-05-12T09:54:07.939Z,100554.47
2023-05-12T09:55:12.103Z,100555.50
2023-05-12T09:56:16.449Z,100555.41
2023-05-12T09:57:21.466Z,100550.91
2023-05-12T09:58:28.320Z,100557.78
2023-05-12T09:59:32.903Z,100557.22
2023-05-12T10:00:58.654Z,100557.66
2023-05-12T10:02:06.406Z,100554.81
2023-05-12T10:03:11.557Z,100556.19
2023-05-12T10:04:15.441Z,100555.22
2023-05-12T10:05:21.493Z,100565.94
2023-05-12T10:06:29.671Z,100555.72
2023-05-12T10:07:33.504Z,100555.94
2023-05-12T10:08:45.083Z,100550.53
2023-05-12T10:09:49.762Z,100562.09
2023-05-12T10:10:54.077Z,100560.06
2023-05-12T10:11:59.534Z,100564.91
2023-05-12T10:13:01.844Z,100556.31
2023-05-12T10:14:06.803Z,100555.28
2023-05-12T10:15:11.840Z,100560.06
2023-05-12T10:16:15.072Z,100553.81
2023-05-12T10:17:20.558Z,100555.28
2023-05-12T10:18:24.060Z,100553.16
2023-05-12T10:19:32.727Z,100546.50
2023-05-12T10:20:37.361Z,100547.19
2023-05-12T10:21:43.079Z,100540.28
2023-05-12T10:22:49.004Z,100547.19
2023-05-12T10:23:53.438Z,100541.50
2023-05-12T10:24:57.137Z,100546.56
2023-05-12T10:26:02.465Z,100544.63
2023-05-12T10:27:06.459Z,100544.41
2023-05-12T10:28:10.029Z,100545.13
2023-05-12T10:29:14.053Z,100545.19
2023-05-12T10:30:17.970Z,100544.69
2023-05-12T10:31:21.441Z,100544.19
2023-05-12T10:32:24.904Z,100548.47
2023-05-12T10:33:28.572Z,100543.09
2023-05-12T10:34:35.492Z,100545.06
2023-05-12T10:35:43.916Z,100538.78
2023-05-12T10:36:49.743Z,100549.44
2023-05-12T10:37:53.223Z,100540.81
2023-05-12T10:38:56.122Z,100534.78
2023-05-12T10:40:02.824Z,100542.00
2023-05-12T10:41:08.733Z,100535.66
2023-05-12T10:42:11.309Z,100534.69
2023-05-12T10:43:23.009Z,100541.28
2023-05-12T10:44:29.267Z,100529.75
2023-05-12T10:45:37.581Z,100528.78
2023-05-12T10:46:41.069Z,100528.13
2023-05-12T10:47:44.527Z,100532.31
2023-05-12T10:48:54.409Z,100532.41
2023-05-12T10:49:59.641Z,100531.56
2023-05-12T10:51:07.746Z,100527.84
2023-05-12T10:52:14.032Z,100525.91
2023-05-12T10:53:16.418Z,100527.72
2023-05-12T10:54:26.126Z,100536.50
2023-05-12T10:55:33.843Z,100537.53
2023-05-12T10:56:44.916Z,100532.88
2023-05-12T10:57:50.959Z,100535.81
2023-05-12T10:59:17.219Z,100539.47
2023-05-12T11:00:25.879Z,100536.50
2023-05-12T11:01:29.636Z,100532.34
2023-05-12T11:02:35.274Z,100535.31
2023-05-12T11:03:38.720Z,100526.97
2023-05-12T11:04:48.279Z,100529.59
2023-05-12T11:05:59.531Z,100537.66
2023-05-12T11:07:06.556Z,100534.16
2023-05-12T11:08:14.298Z,100530.84
2023-05-12T11:09:17.719Z,100533.31
2023-05-12T11:10:22.105Z,100531.22
2023-05-12T11:11:25.245Z,100531.06
2023-05-12T11:12:33.039Z,100534.47
2023-05-12T11:13:37.029Z,100536.16
2023-05-12T11:14:41.513Z,100525.19
2023-05-12T11:15:45.869Z,100526.22
2023-05-12T11:16:48.253Z,100532.28
2023-05-12T11:17:51.880Z,100532.13
2023-05-12T11:19:01.790Z,100533.63
2023-05-12T11:20:05.645Z,100539.31
2023-05-12T11:21:12.543Z,100534.38
2023-05-12T11:22:17.905Z,100534.88
2023-05-12T11:23:29.926Z,100534.09
2023-05-12T11:24:32.356Z,100532.59
2023-05-12T11:25:37.099Z,100538.72
2023-05-12T11:26:40.816Z,100533.78
2023-05-12T11:27:51.536Z,100534.53
2023-05-12T11:28:54.049Z,100537.03
2023-05-12T11:29:58.371Z,100528.19
2023-05-12T11:31:01.031Z,100517.91
2023-05-12T11:32:04.576Z,100530.41
2023-05-12T11:33:06.958Z,100537.81
2023-05-12T11:34:13.482Z,100526.41
2023-05-12T11:35:17.730Z,100525.91
2023-05-12T11:36:21.895Z,100529.31
2023-05-12T11:37:24.270Z,100536.25
2023-05-12T11:38:29.020Z,100536.56
2023-05-12T11:39:32.329Z,100538.19
2023-05-12T11:40:41.263Z,100531.19
2023-05-12T11:41:43.272Z,100538.47
2023-05-12T11:42:48.586Z,100536.00
2023-05-12T11:43:51.778Z,100529.75
2023-05-12T11:44:55.429Z,100540.63
2023-05-12T11:45:59.722Z,100536.91
2023-05-12T11:47:10.843Z,100548.09
2023-05-12T11:48:14.945Z,100537.63
2023-05-12T11:49:16.942Z,100536.72
2023-05-12T11:50:26.130Z,100540.09
2023-05-12T11:51:28.111Z,100534.91
2023-05-12T11:52:30.853Z,100544.38
2023-05-12T11:53:41.288Z,100539.09
2023-05-12T11:54:49.876Z,100531.31
2023-05-12T11:55:55.737Z,100535.63
2023-05-12T11:56:58.063Z,100534.19
2023-05-12T11:58:02.652Z,100540.50
2023-05-12T11:59:05.813Z,100543.75
2023-05-12T12:00:09.220Z,100546.06
2023-05-12T12:01:12.700Z,100539.56
2023-05-12T12:02:20.946Z,100541.56
2023-05-12T12:03:25.254Z,100536.78
2023-05-12T12:04:35.237Z,100540.38
2023-05-12T12:05:38.977Z,100537.25
2023-05-12T12:06:44.333Z,100539.19
2023-05-12T12:07:47.077Z,100537.47
2023-05-12T12:08:59.903Z,100535.94
2023-05-12T12:10:11.841Z,100553.09
2023-05-12T12:11:14.718Z,100545.72
2023-05-12T12:12:16.600Z,100547.44
2023-05-12T12:13:21.468Z,100549.84
2023-05-12T12:14:23.319Z,100544.25
2023-05-12T12:15:26.169Z,100555.16
2023-05-12T12:16:31.410Z,100543.84
2023-05-12T12:17:33.300Z,100557.34
2023-05-12T12:18:36.134Z,100548.41
2023-05-12T12:19:38.061Z,100551.84
2023-05-12T12:20:40.822Z,100555.63
2023-05-12T12:21:42.781Z,100540.97
2023-05-12T12:22:45.654Z,100549.28
2023-05-12T12:23:51.278Z,100543.69
2023-05-12T12:24:54.892Z,100536.59
2023-05-12T12:25:57.624Z,100546.03
2023-05-12T12:26:59.673Z,100548.28
2023-05-12T12:28:02.609Z,100545.31
2023-05-12T12:29:04.693Z,100562.81
2023-05-12T12:30:08.660Z,100550.84
2023-05-12T12:31:11.489Z,100551.31
2023-05-12T12:32:13.499Z,100558.81
2023-05-12T12:33:18.743Z,100557.69
2023-05-12T12:34:23.104Z,100556.88
2023-05-12T12:35:25.849Z,100551.25
2023-05-12T12:36:27.700Z,100564.66
2023-05-12T12:37:30.673Z,100565.44
2023-05-12T12:38:33.680Z,100565.44
2023-05-12T12:39:35.747Z,100559.44
2023-05-12T12:40:39.853Z,100560.03
2023-05-12T12:41:42.243Z,100564.28
2023-05-12T12:42:45.418Z,100561.91
2023-05-12T12:43:47.358Z,100562.78
2023-05-12T12:44:51.272Z,100557.75
2023-05-12T12:45:54.509Z,100560.41
2023-05-12T12:46:56.431Z,100565.13
2023-05-12T12:47:59.328Z,100566.81
2023-05-12T12:49:01.277Z,100560.31
2023-05-12T12:50:04.691Z,100562.78
2023-05-12T12:51:07.495Z,100563.84
2023-05-12T12:52:09.270Z,100559.97
2023-05-12T12:53:12.051Z,100561.69
2023-05-12T12:54:14.611Z,100562.19
2023-05-12T12:55:18.105Z,100563.13
2023-05-12T12:56:23.750Z,100559.19
2023-05-12T12:57:27.652Z,100561.97
2023-05-12T12:58:30.533Z,100561.41
2023-05-12T12:59:33.085Z,100557.78
2023-05-12T13:00:35.946Z,100561.03
2023-05-12T13:01:37.804Z,100560.09
2023-05-12T13:02:40.644Z,100562.06
2023-05-12T13:03:42.485Z,100560.59
2023-05-12T13:04:45.330Z,100567.75
2023-05-12T13:05:47.410Z,100561.41
2023-05-12T13:06:50.277Z,100560.81
2023-05-12T13:07:53.482Z,100561.50
2023-05-12T13:08:55.413Z,100563.38
2023-05-12T13:09:58.260Z,100565.31
2023-05-12T13:11:01.593Z,100569.72
2023-05-12T13:12:05.527Z,100569.03
2023-05-12T13:13:08.257Z,100569.59
2023-05-12T13:14:10.381Z,100566.84
2023-05-12T13:15:13.546Z,100572.59
2023-05-12T13:16:15.475Z,100567.06
2023-05-12T13:17:19.015Z,100568.78
2023-05-12T13:18:21.277Z,100566.59
2023-05-12T13:19:24.114Z,100570.84
2023-05-12T13:20:26.875Z,100565.44
2023-05-12T13:21:29.753Z,100564.50
2023-05-12T13:22:31.709Z,100564.41
2023-05-12T13:23:34.437Z,100567.72
2023-05-12T13:24:36.369Z,100565.06
2023-05-12T13:25:39.217Z,100573.28
2023-05-12T13:26:41.048Z,100561.53
2023-05-12T13:27:45.178Z,100563.25
2023-05-12T13:28:46.988Z,100557.34
2023-05-12T13:29:49.697Z,100560.59
2023-05-12T13:30:52.177Z,100561.63
2023-05-12T13:31:55.529Z,100563.59
2023-05-12T13:32:57.392Z,100561.94
2023-05-12T13:34:00.139Z,100559.47
2023-05-12T13:35:02.233Z,100546.78
2023-05-12T13:36:05.415Z,100550.75
2023-05-12T13:37:07.378Z,100545.94
2023-05-12T13:38:10.802Z,100553.09
2023-05-12T13:39:13.697Z,100550.19
2023-05-12T13:40:15.566Z,100534.31
2023-05-12T13:41:18.283Z,100542.75
2023-05-12T13:42:21.764Z,100542.41
2023-05-12T13:43:26.013Z,100549.06
2023-05-12T13:44:28.780Z,100544.19
2023-05-12T13:45:30.840Z,100546.22
2023-05-12T13:46:33.897Z,100547.84
2023-05-12T13:47:35.781Z,100556.66
2023-05-12T13:48:38.600Z,100553.19
2023-05-12T13:49:40.571Z,100551.09
2023-05-12T13:50:43.284Z,100545.28
2023-05-12T13:51:45.097Z,100550.75
2023-05-12T13:52:48.032Z,100555.25
2023-05-12T13:53:52.656Z,100551.88
2023-05-12T13:54:55.403Z,100561.09
2023-05-12T13:55:57.191Z,100558.97
2023-05-12T13:56:59.956Z,100555.59
2023-05-12T13:58:02.749Z,100554.50
2023-05-12T13:59:05.986Z,100564.97
2023-05-12T14:00:09.964Z,100562.88